sensor_id;sensor_type;location;lat;lon;timestamp;temperature;humidity
23691;DHT22;43867;50.836;4.364;2022-09-17T00:01:28;11.20;99.90
23691;DHT22;43867;50.836;4.364;2022-09-17T00:03:56;11.30;99.90
23691;DHT22;43867;50.836;4.364;2022-09-17T00:06:32;11.50;99.90
23691;DHT22;43867;50.836;4.364;2022-09-17T00:09:03;11.60;99.90
23691;DHT22;43867;50.836;4.364;2022-09-17T00:11:34;11.50;99.90
23691;DHT22;43867;50.836;4.364;2022-09-17T00:14:04;11.40;99.90
23691;DHT22;43867;50.836;4.364;2022-09-17T00:16:34;11.40;99.90
23691;DHT22;43867;50.836;4.364;2022-09-17T00:19:03;11.40;99.90
23691;DHT22;43867;50.836;4.364;2022-09-17T00:21:30;11.60;99.90
23691;DHT22;43867;50.836;4.364;2022-09-17T00:24:05;11.60;99.90
23691;DHT22;43867;50.836;4.364;2022-09-17T00:26:40;11.40;99.90
23691;DHT22;43867;50.836;4.364;2022-09-17T00:29:07;11.10;99.90
23691;DHT22;43867;50.836;4.364;2022-09-17T00:31:43;11.20;99.90
23691;DHT22;43867;50.836;4.364;2022-09-17T00:34:11;11.10;99.90
23691;DHT22;43867;50.836;4.364;2022-09-17T00:36:38;10.90;99.90
23691;DHT22;43867;50.836;4.364;2022-09-17T00:39:06;10.80;99.90
23691;DHT22;43867;50.836;4.364;2022-09-17T00:41:50;10.90;99.90
23691;DHT22;43867;50.836;4.364;2022-09-17T00:50:25;11.00;99.90
23691;DHT22;43867;50.836;4.364;2022-09-17T00:53:14;10.90;99.90
23691;DHT22;43867;50.836;4.364;2022-09-17T00:56:13;11.10;99.90
23691;DHT22;43867;50.836;4.364;2022-09-17T00:58:43;11.00;99.90
23691;DHT22;43867;50.836;4.364;2022-09-17T01:01:12;10.90;99.90
23691;DHT22;43867;50.836;4.364;2022-09-17T01:03:39;11.00;99.90
23691;DHT22;43867;50.836;4.364;2022-09-17T01:17:37;11.30;99.90
23691;DHT22;43867;50.836;4.364;2022-09-17T01:29:33;11.40;99.90
23691;DHT22;43867;50.836;4.364;2022-09-17T01:32:17;11.10;99.90
23691;DHT22;43867;50.836;4.364;2022-09-17T01:35:07;11.30;99.90
23691;DHT22;43867;50.836;4.364;2022-09-17T01:38:04;11.40;99.90
23691;DHT22;43867;50.836;4.364;2022-09-17T01:43:21;11.30;99.90
23691;DHT22;43867;50.836;4.364;2022-09-17T01:45:56;11.50;99.90
23691;DHT22;43867;50.836;4.364;2022-09-17T01:48:28;11.50;99.90
23691;DHT22;43867;50.836;4.364;2022-09-17T01:51:04;11.70;99.90
23691;DHT22;43867;50.836;4.364;2022-09-17T01:53:44;12.00;99.90
23691;DHT22;43867;50.836;4.364;2022-09-17T01:56:15;11.70;99.90
23691;DHT22;43867;50.836;4.364;2022-09-17T01:59:06;11.90;99.90
23691;DHT22;43867;50.836;4.364;2022-09-17T02:01:32;11.70;99.90
23691;DHT22;43867;50.836;4.364;2022-09-17T02:04:10;11.60;99.90
23691;DHT22;43867;50.836;4.364;2022-09-17T02:06:43;11.60;99.90
23691;DHT22;43867;50.836;4.364;2022-09-17T02:09:20;11.60;99.90
23691;DHT22;43867;50.836;4.364;2022-09-17T02:11:56;11.70;99.90
23691;DHT22;43867;50.836;4.364;2022-09-17T02:14:34;11.70;99.90
23691;DHT22;43867;50.836;4.364;2022-09-17T02:17:06;11.60;99.90
23691;DHT22;43867;50.836;4.364;2022-09-17T02:19:39;11.60;99.90
23691;DHT22;43867;50.836;4.364;2022-09-17T02:30:22;11.60;99.90
23691;DHT22;43867;50.836;4.364;2022-09-17T02:32:49;11.50;99.90
23691;DHT22;43867;50.836;4.364;2022-09-17T02:35:31;11.50;99.90
23691;DHT22;43867;50.836;4.364;2022-09-17T02:37:59;11.60;99.90
23691;DHT22;43867;50.836;4.364;2022-09-17T02:40:28;11.60;99.90
23691;DHT22;43867;50.836;4.364;2022-09-17T02:46:26;11.60;99.90
23691;DHT22;43867;50.836;4.364;2022-09-17T02:54:49;11.60;99.90
23691;DHT22;43867;50.836;4.364;2022-09-17T02:57:26;11.60;99.90
23691;DHT22;43867;50.836;4.364;2022-09-17T03:06:16;11.50;99.90
23691;DHT22;43867;50.836;4.364;2022-09-17T03:08:46;11.40;99.90
23691;DHT22;43867;50.836;4.364;2022-09-17T03:11:12;11.20;99.90
23691;DHT22;43867;50.836;4.364;2022-09-17T03:13:44;11.10;99.90
23691;DHT22;43867;50.836;4.364;2022-09-17T03:16:10;11.00;99.90
23691;DHT22;43867;50.836;4.364;2022-09-17T03:18:38;11.00;99.90
23691;DHT22;43867;50.836;4.364;2022-09-17T03:21:05;11.00;99.90
23691;DHT22;43867;50.836;4.364;2022-09-17T03:23:41;11.00;99.90
23691;DHT22;43867;50.836;4.364;2022-09-17T03:26:07;10.90;99.90
23691;DHT22;43867;50.836;4.364;2022-09-17T03:28:32;10.80;99.90
23691;DHT22;43867;50.836;4.364;2022-09-17T03:30:59;10.90;99.90
23691;DHT22;43867;50.836;4.364;2022-09-17T03:33:28;10.90;99.90
23691;DHT22;43867;50.836;4.364;2022-09-17T03:35:53;10.60;99.90
23691;DHT22;43867;50.836;4.364;2022-09-17T03:38:19;10.50;99.90
23691;DHT22;43867;50.836;4.364;2022-09-17T03:40:56;10.60;99.90
23691;DHT22;43867;50.836;4.364;2022-09-17T03:43:23;10.50;99.90
23691;DHT22;43867;50.836;4.364;2022-09-17T03:45:49;10.40;99.90
23691;DHT22;43867;50.836;4.364;2022-09-17T03:48:16;10.40;99.90
23691;DHT22;43867;50.836;4.364;2022-09-17T03:50:44;10.40;99.90
23691;DHT22;43867;50.836;4.364;2022-09-17T03:53:12;10.30;99.90
23691;DHT22;43867;50.836;4.364;2022-09-17T03:55:45;10.40;99.90
23691;DHT22;43867;50.836;4.364;2022-09-17T03:58:14;10.40;99.90
23691;DHT22;43867;50.836;4.364;2022-09-17T04:00:40;10.40;99.90
23691;DHT22;43867;50.836;4.364;2022-09-17T04:03:07;10.30;99.90
23691;DHT22;43867;50.836;4.364;2022-09-17T04:05:35;10.30;99.90
23691;DHT22;43867;50.836;4.364;2022-09-17T04:08:00;10.40;99.90
23691;DHT22;43867;50.836;4.364;2022-09-17T04:10:26;10.60;99.90
23691;DHT22;43867;50.836;4.364;2022-09-17T04:12:52;10.50;99.90
23691;DHT22;43867;50.836;4.364;2022-09-17T04:15:17;10.50;99.90
23691;DHT22;43867;50.836;4.364;2022-09-17T04:17:43;10.40;99.90
23691;DHT22;43867;50.836;4.364;2022-09-17T04:20:09;10.30;99.90
23691;DHT22;43867;50.836;4.364;2022-09-17T04:22:35;10.30;99.90
23691;DHT22;43867;50.836;4.364;2022-09-17T04:25:02;10.30;99.90
23691;DHT22;43867;50.836;4.364;2022-09-17T04:27:28;10.40;99.90
23691;DHT22;43867;50.836;4.364;2022-09-17T04:29:54;10.40;99.90
23691;DHT22;43867;50.836;4.364;2022-09-17T04:32:19;10.30;99.90
23691;DHT22;43867;50.836;4.364;2022-09-17T04:34:45;10.20;99.90
23691;DHT22;43867;50.836;4.364;2022-09-17T04:37:11;10.10;99.90
23691;DHT22;43867;50.836;4.364;2022-09-17T04:39:36;10.10;99.90
23691;DHT22;43867;50.836;4.364;2022-09-17T04:42:02;10.10;99.90
23691;DHT22;43867;50.836;4.364;2022-09-17T04:44:30;10.10;99.90
23691;DHT22;43867;50.836;4.364;2022-09-17T04:47:06;10.20;99.90
23691;DHT22;43867;50.836;4.364;2022-09-17T04:49:43;10.20;99.90
23691;DHT22;43867;50.836;4.364;2022-09-17T04:52:11;10.30;99.90
23691;DHT22;43867;50.836;4.364;2022-09-17T04:54:40;10.20;99.90
23691;DHT22;43867;50.836;4.364;2022-09-17T04:57:06;10.20;99.90
23691;DHT22;43867;50.836;4.364;2022-09-17T04:59:32;10.10;99.90
23691;DHT22;43867;50.836;4.364;2022-09-17T05:01:59;10.30;99.90
23691;DHT22;43867;50.836;4.364;2022-09-17T05:04:25;10.40;99.90
23691;DHT22;43867;50.836;4.364;2022-09-17T05:06:50;10.30;99.90
23691;DHT22;43867;50.836;4.364;2022-09-17T05:09:16;10.50;99.90
23691;DHT22;43867;50.836;4.364;2022-09-17T05:11:42;10.40;99.90
23691;DHT22;43867;50.836;4.364;2022-09-17T05:14:08;10.20;99.90
23691;DHT22;43867;50.836;4.364;2022-09-17T05:16:34;10.30;99.90
23691;DHT22;43867;50.836;4.364;2022-09-17T05:19:01;10.30;99.90
23691;DHT22;43867;50.836;4.364;2022-09-17T05:21:26;10.20;99.90
23691;DHT22;43867;50.836;4.364;2022-09-17T05:23:58;10.30;99.90
23691;DHT22;43867;50.836;4.364;2022-09-17T05:26:25;10.30;99.90
23691;DHT22;43867;50.836;4.364;2022-09-17T05:28:53;10.30;99.90
23691;DHT22;43867;50.836;4.364;2022-09-17T05:31:22;10.30;99.90
23691;DHT22;43867;50.836;4.364;2022-09-17T05:33:47;10.30;99.90
23691;DHT22;43867;50.836;4.364;2022-09-17T05:36:13;10.50;99.90
23691;DHT22;43867;50.836;4.364;2022-09-17T05:38:39;10.60;99.90
23691;DHT22;43867;50.836;4.364;2022-09-17T05:41:11;10.40;99.90
23691;DHT22;43867;50.836;4.364;2022-09-17T05:43:37;10.40;99.90
23691;DHT22;43867;50.836;4.364;2022-09-17T05:46:04;10.70;99.90
23691;DHT22;43867;50.836;4.364;2022-09-17T05:48:30;10.80;99.90
23691;DHT22;43867;50.836;4.364;2022-09-17T05:50:56;10.90;99.90
23691;DHT22;43867;50.836;4.364;2022-09-17T05:53:25;10.90;99.90
23691;DHT22;43867;50.836;4.364;2022-09-17T05:55:57;10.90;99.90
23691;DHT22;43867;50.836;4.364;2022-09-17T05:58:24;11.00;99.90
23691;DHT22;43867;50.836;4.364;2022-09-17T06:00:50;11.30;99.90
23691;DHT22;43867;50.836;4.364;2022-09-17T06:03:17;11.20;99.90
23691;DHT22;43867;50.836;4.364;2022-09-17T06:05:55;11.20;99.90
23691;DHT22;43867;50.836;4.364;2022-09-17T06:08:27;11.00;99.90
23691;DHT22;43867;50.836;4.364;2022-09-17T06:10:59;11.20;99.90
23691;DHT22;43867;50.836;4.364;2022-09-17T06:13:29;11.10;99.90
23691;DHT22;43867;50.836;4.364;2022-09-17T06:16:14;11.40;99.90
23691;DHT22;43867;50.836;4.364;2022-09-17T06:18:42;11.20;99.90
23691;DHT22;43867;50.836;4.364;2022-09-17T06:21:08;11.30;99.90
23691;DHT22;43867;50.836;4.364;2022-09-17T06:23:50;11.30;99.90
23691;DHT22;43867;50.836;4.364;2022-09-17T06:26:16;11.40;99.90
23691;DHT22;43867;50.836;4.364;2022-09-17T06:28:44;11.20;99.90
23691;DHT22;43867;50.836;4.364;2022-09-17T06:31:16;11.20;99.90
23691;DHT22;43867;50.836;4.364;2022-09-17T06:33:42;11.10;99.90
23691;DHT22;43867;50.836;4.364;2022-09-17T06:36:10;11.10;99.90
23691;DHT22;43867;50.836;4.364;2022-09-17T06:38:38;11.30;99.90
23691;DHT22;43867;50.836;4.364;2022-09-17T06:41:04;11.40;99.90
23691;DHT22;43867;50.836;4.364;2022-09-17T06:43:30;11.50;99.90
23691;DHT22;43867;50.836;4.364;2022-09-17T06:45:59;11.70;99.90
23691;DHT22;43867;50.836;4.364;2022-09-17T06:48:29;11.60;99.90
23691;DHT22;43867;50.836;4.364;2022-09-17T06:51:01;11.80;99.90
23691;DHT22;43867;50.836;4.364;2022-09-17T06:53:31;11.90;99.90
23691;DHT22;43867;50.836;4.364;2022-09-17T06:56:04;11.90;99.90
23691;DHT22;43867;50.836;4.364;2022-09-17T06:58:36;11.70;99.90
23691;DHT22;43867;50.836;4.364;2022-09-17T07:01:04;11.60;99.90
23691;DHT22;43867;50.836;4.364;2022-09-17T07:03:45;11.40;99.90
23691;DHT22;43867;50.836;4.364;2022-09-17T07:06:16;11.50;99.90
23691;DHT22;43867;50.836;4.364;2022-09-17T07:08:42;11.70;99.90
23691;DHT22;43867;50.836;4.364;2022-09-17T07:11:08;11.90;99.90
23691;DHT22;43867;50.836;4.364;2022-09-17T07:13:41;12.10;99.90
23691;DHT22;43867;50.836;4.364;2022-09-17T07:16:09;12.10;99.90
23691;DHT22;43867;50.836;4.364;2022-09-17T07:18:37;12.00;99.90
23691;DHT22;43867;50.836;4.364;2022-09-17T07:21:05;12.20;99.90
23691;DHT22;43867;50.836;4.364;2022-09-17T07:23:32;12.20;99.90
23691;DHT22;43867;50.836;4.364;2022-09-17T07:26:08;12.20;99.90
23691;DHT22;43867;50.836;4.364;2022-09-17T07:28:38;12.20;99.90
23691;DHT22;43867;50.836;4.364;2022-09-17T07:31:06;12.10;99.90
23691;DHT22;43867;50.836;4.364;2022-09-17T07:33:35;12.20;99.90
23691;DHT22;43867;50.836;4.364;2022-09-17T07:36:07;12.20;99.90
23691;DHT22;43867;50.836;4.364;2022-09-17T07:38:34;12.20;99.90
23691;DHT22;43867;50.836;4.364;2022-09-17T07:41:05;12.10;99.90
23691;DHT22;43867;50.836;4.364;2022-09-17T07:43:32;12.30;99.90
23691;DHT22;43867;50.836;4.364;2022-09-17T07:46:22;12.40;99.90
23691;DHT22;43867;50.836;4.364;2022-09-17T07:48:50;12.50;99.90
23691;DHT22;43867;50.836;4.364;2022-09-17T07:51:20;12.30;99.90
23691;DHT22;43867;50.836;4.364;2022-09-17T07:53:46;12.40;99.90
23691;DHT22;43867;50.836;4.364;2022-09-17T07:56:17;12.30;99.90
23691;DHT22;43867;50.836;4.364;2022-09-17T07:58:44;12.20;99.90
23691;DHT22;43867;50.836;4.364;2022-09-17T08:01:14;12.20;99.90
23691;DHT22;43867;50.836;4.364;2022-09-17T08:03:52;12.40;99.90
23691;DHT22;43867;50.836;4.364;2022-09-17T08:06:24;12.80;99.90
23691;DHT22;43867;50.836;4.364;2022-09-17T08:08:54;13.30;99.90
23691;DHT22;43867;50.836;4.364;2022-09-17T08:11:23;13.60;99.90
23691;DHT22;43867;50.836;4.364;2022-09-17T08:13:52;13.70;99.90
23691;DHT22;43867;50.836;4.364;2022-09-17T08:16:40;13.50;99.90
23691;DHT22;43867;50.836;4.364;2022-09-17T08:19:06;13.40;99.90
23691;DHT22;43867;50.836;4.364;2022-09-17T08:21:35;13.30;99.90
23691;DHT22;43867;50.836;4.364;2022-09-17T08:24:06;13.20;99.90
23691;DHT22;43867;50.836;4.364;2022-09-17T08:26:33;13.40;99.90
23691;DHT22;43867;50.836;4.364;2022-09-17T08:28:58;13.80;99.90
23691;DHT22;43867;50.836;4.364;2022-09-17T08:31:26;13.90;99.90
23691;DHT22;43867;50.836;4.364;2022-09-17T08:33:54;14.10;99.90
23691;DHT22;43867;50.836;4.364;2022-09-17T08:36:46;14.30;99.90
23691;DHT22;43867;50.836;4.364;2022-09-17T08:39:14;14.70;99.90
23691;DHT22;43867;50.836;4.364;2022-09-17T08:41:50;15.10;99.90
23691;DHT22;43867;50.836;4.364;2022-09-17T08:44:26;15.80;99.90
23691;DHT22;43867;50.836;4.364;2022-09-17T08:47:28;15.80;99.90
23691;DHT22;43867;50.836;4.364;2022-09-17T08:50:01;15.60;99.90
23691;DHT22;43867;50.836;4.364;2022-09-17T09:09:40;15.40;99.90
23691;DHT22;43867;50.836;4.364;2022-09-17T09:12:31;15.50;99.90
23691;DHT22;43867;50.836;4.364;2022-09-17T09:18:18;14.90;99.90
23691;DHT22;43867;50.836;4.364;2022-09-17T09:20:48;14.60;99.90
23691;DHT22;43867;50.836;4.364;2022-09-17T09:24:35;14.50;99.90
23691;DHT22;43867;50.836;4.364;2022-09-17T09:27:16;14.10;99.90
23691;DHT22;43867;50.836;4.364;2022-09-17T09:30:02;14.30;99.90
23691;DHT22;43867;50.836;4.364;2022-09-17T09:32:55;14.10;99.90
23691;DHT22;43867;50.836;4.364;2022-09-17T09:35:27;14.10;99.90
23691;DHT22;43867;50.836;4.364;2022-09-17T09:45:53;13.50;99.90
23691;DHT22;43867;50.836;4.364;2022-09-17T09:48:50;13.30;99.90
23691;DHT22;43867;50.836;4.364;2022-09-17T09:54:49;13.70;99.90
23691;DHT22;43867;50.836;4.364;2022-09-17T09:57:47;13.60;99.90
23691;DHT22;43867;50.836;4.364;2022-09-17T10:05:57;14.60;99.90
23691;DHT22;43867;50.836;4.364;2022-09-17T10:08:26;14.50;99.90
23691;DHT22;43867;50.836;4.364;2022-09-17T10:10:57;14.80;99.90
23691;DHT22;43867;50.836;4.364;2022-09-17T10:13:25;14.90;99.90
23691;DHT22;43867;50.836;4.364;2022-09-17T10:18:41;15.30;99.90
23691;DHT22;43867;50.836;4.364;2022-09-17T10:23:43;15.50;99.90
23691;DHT22;43867;50.836;4.364;2022-09-17T10:26:33;15.40;99.90
23691;DHT22;43867;50.836;4.364;2022-09-17T10:29:14;15.50;99.90
23691;DHT22;43867;50.836;4.364;2022-09-17T10:31:48;15.10;99.90
23691;DHT22;43867;50.836;4.364;2022-09-17T10:34:22;14.90;99.90
23691;DHT22;43867;50.836;4.364;2022-09-17T10:36:53;14.70;99.90
23691;DHT22;43867;50.836;4.364;2022-09-17T10:39:35;14.40;99.90
23691;DHT22;43867;50.836;4.364;2022-09-17T10:42:11;14.30;99.90
23691;DHT22;43867;50.836;4.364;2022-09-17T10:44:38;14.40;99.90
23691;DHT22;43867;50.836;4.364;2022-09-17T10:47:31;14.50;99.90
23691;DHT22;43867;50.836;4.364;2022-09-17T10:50:04;14.40;99.90
23691;DHT22;43867;50.836;4.364;2022-09-17T10:52:40;14.70;99.90
23691;DHT22;43867;50.836;4.364;2022-09-17T10:55:30;15.00;99.90
23691;DHT22;43867;50.836;4.364;2022-09-17T11:34:22;14.40;99.90
23691;DHT22;43867;50.836;4.364;2022-09-17T11:37:31;14.40;99.90
23691;DHT22;43867;50.836;4.364;2022-09-17T11:40:05;14.70;99.90
23691;DHT22;43867;50.836;4.364;2022-09-17T11:46:02;14.80;99.90
23691;DHT22;43867;50.836;4.364;2022-09-17T11:48:34;14.70;99.90
23691;DHT22;43867;50.836;4.364;2022-09-17T11:52:07;14.50;99.90
23691;DHT22;43867;50.836;4.364;2022-09-17T11:54:44;14.40;99.90
23691;DHT22;43867;50.836;4.364;2022-09-17T11:57:20;14.30;99.90
23691;DHT22;43867;50.836;4.364;2022-09-17T12:05:52;14.60;99.90
23691;DHT22;43867;50.836;4.364;2022-09-17T12:08:41;14.40;99.90
23691;DHT22;43867;50.836;4.364;2022-09-17T12:11:25;14.30;99.90
23691;DHT22;43867;50.836;4.364;2022-09-17T12:13:56;14.20;99.90
23691;DHT22;43867;50.836;4.364;2022-09-17T12:16:34;14.30;99.90
23691;DHT22;43867;50.836;4.364;2022-09-17T12:21:56;14.60;99.90
23691;DHT22;43867;50.836;4.364;2022-09-17T12:24:25;14.50;99.90
23691;DHT22;43867;50.836;4.364;2022-09-17T12:29:51;14.70;99.90
23691;DHT22;43867;50.836;4.364;2022-09-17T12:46:24;15.10;99.90
23691;DHT22;43867;50.836;4.364;2022-09-17T12:54:37;15.50;99.90
23691;DHT22;43867;50.836;4.364;2022-09-17T13:00:04;14.90;99.90
23691;DHT22;43867;50.836;4.364;2022-09-17T13:02:40;14.60;99.90
23691;DHT22;43867;50.836;4.364;2022-09-17T13:08:28;13.90;99.90
23691;DHT22;43867;50.836;4.364;2022-09-17T13:16:43;12.70;99.90
23691;DHT22;43867;50.836;4.364;2022-09-17T13:19:23;12.60;99.90
23691;DHT22;43867;50.836;4.364;2022-09-17T13:22:05;12.60;99.90
23691;DHT22;43867;50.836;4.364;2022-09-17T13:24:32;12.40;99.90
23691;DHT22;43867;50.836;4.364;2022-09-17T13:27:00;12.40;99.90
23691;DHT22;43867;50.836;4.364;2022-09-17T13:37:44;13.00;99.90
23691;DHT22;43867;50.836;4.364;2022-09-17T13:42:49;13.30;99.90
23691;DHT22;43867;50.836;4.364;2022-09-17T13:45:18;13.70;99.90
23691;DHT22;43867;50.836;4.364;2022-09-17T13:48:08;13.60;99.90
23691;DHT22;43867;50.836;4.364;2022-09-17T13:50:38;13.60;99.90
23691;DHT22;43867;50.836;4.364;2022-09-17T13:53:17;13.70;99.90
23691;DHT22;43867;50.836;4.364;2022-09-17T13:55:52;14.00;99.90
23691;DHT22;43867;50.836;4.364;2022-09-17T14:08:47;14.40;99.90
23691;DHT22;43867;50.836;4.364;2022-09-17T14:19:59;14.60;99.90
23691;DHT22;43867;50.836;4.364;2022-09-17T14:22:25;14.60;99.90
23691;DHT22;43867;50.836;4.364;2022-09-17T14:24:52;14.70;99.90
23691;DHT22;43867;50.836;4.364;2022-09-17T14:32:53;15.00;99.90
23691;DHT22;43867;50.836;4.364;2022-09-17T14:38:39;14.40;99.90
23691;DHT22;43867;50.836;4.364;2022-09-17T14:43:57;13.30;99.90
23691;DHT22;43867;50.836;4.364;2022-09-17T14:49:23;12.60;99.90
23691;DHT22;43867;50.836;4.364;2022-09-17T14:51:53;12.70;99.90
23691;DHT22;43867;50.836;4.364;2022-09-17T14:54:28;12.60;99.90
23691;DHT22;43867;50.836;4.364;2022-09-17T14:56:59;12.50;99.90
23691;DHT22;43867;50.836;4.364;2022-09-17T15:05:01;12.60;99.90
23691;DHT22;43867;50.836;4.364;2022-09-17T15:07:29;12.80;99.90
23691;DHT22;43867;50.836;4.364;2022-09-17T15:10:06;12.90;99.90
23691;DHT22;43867;50.836;4.364;2022-09-17T15:12:46;13.10;99.90
23691;DHT22;43867;50.836;4.364;2022-09-17T15:15:24;13.40;99.90
23691;DHT22;43867;50.836;4.364;2022-09-17T15:17:52;13.60;99.90
23691;DHT22;43867;50.836;4.364;2022-09-17T15:20:24;13.50;99.90
23691;DHT22;43867;50.836;4.364;2022-09-17T15:23:06;13.50;99.90
23691;DHT22;43867;50.836;4.364;2022-09-17T15:25:38;13.60;99.90
23691;DHT22;43867;50.836;4.364;2022-09-17T15:28:22;13.60;99.90
23691;DHT22;43867;50.836;4.364;2022-09-17T15:30:49;13.70;99.90
23691;DHT22;43867;50.836;4.364;2022-09-17T15:33:16;13.50;99.90
23691;DHT22;43867;50.836;4.364;2022-09-17T15:39:28;13.60;99.90
23691;DHT22;43867;50.836;4.364;2022-09-17T15:41:56;13.80;99.90
23691;DHT22;43867;50.836;4.364;2022-09-17T15:44:23;13.80;99.90
23691;DHT22;43867;50.836;4.364;2022-09-17T15:46:53;13.60;99.90
23691;DHT22;43867;50.836;4.364;2022-09-17T15:49:34;13.70;99.90
23691;DHT22;43867;50.836;4.364;2022-09-17T15:52:24;13.60;99.90
23691;DHT22;43867;50.836;4.364;2022-09-17T15:54:52;13.60;99.90
23691;DHT22;43867;50.836;4.364;2022-09-17T15:57:20;13.50;99.90
23691;DHT22;43867;50.836;4.364;2022-09-17T15:59:46;13.70;99.90
23691;DHT22;43867;50.836;4.364;2022-09-17T16:02:27;13.70;99.90
23691;DHT22;43867;50.836;4.364;2022-09-17T16:07:41;13.70;99.90
23691;DHT22;43867;50.836;4.364;2022-09-17T16:10:09;13.60;99.90
23691;DHT22;43867;50.836;4.364;2022-09-17T16:12:35;13.40;99.90
23691;DHT22;43867;50.836;4.364;2022-09-17T16:15:05;13.30;99.90
23691;DHT22;43867;50.836;4.364;2022-09-17T16:17:43;13.40;99.90
23691;DHT22;43867;50.836;4.364;2022-09-17T16:20:24;13.50;99.90
23691;DHT22;43867;50.836;4.364;2022-09-17T16:22:51;13.60;99.90
23691;DHT22;43867;50.836;4.364;2022-09-17T16:25:22;13.50;99.90
23691;DHT22;43867;50.836;4.364;2022-09-17T16:27:55;13.80;99.90
23691;DHT22;43867;50.836;4.364;2022-09-17T16:30:22;13.80;99.90
23691;DHT22;43867;50.836;4.364;2022-09-17T16:32:48;13.60;99.90
23691;DHT22;43867;50.836;4.364;2022-09-17T16:35:23;13.60;99.90
23691;DHT22;43867;50.836;4.364;2022-09-17T16:37:50;13.60;99.90
23691;DHT22;43867;50.836;4.364;2022-09-17T16:40:17;13.50;99.90
23691;DHT22;43867;50.836;4.364;2022-09-17T16:42:43;13.40;99.90
23691;DHT22;43867;50.836;4.364;2022-09-17T16:45:09;13.60;99.90
23691;DHT22;43867;50.836;4.364;2022-09-17T16:47:39;13.70;99.90
23691;DHT22;43867;50.836;4.364;2022-09-17T16:50:14;13.60;99.90
23691;DHT22;43867;50.836;4.364;2022-09-17T16:52:43;13.50;99.90
23691;DHT22;43867;50.836;4.364;2022-09-17T16:55:13;13.40;99.90
23691;DHT22;43867;50.836;4.364;2022-09-17T16:57:45;13.50;99.90
23691;DHT22;43867;50.836;4.364;2022-09-17T17:00:14;13.50;99.90
23691;DHT22;43867;50.836;4.364;2022-09-17T17:02:50;13.40;99.90
23691;DHT22;43867;50.836;4.364;2022-09-17T17:05:16;13.40;99.90
23691;DHT22;43867;50.836;4.364;2022-09-17T17:07:46;13.10;99.90
23691;DHT22;43867;50.836;4.364;2022-09-17T17:10:11;13.20;99.90
23691;DHT22;43867;50.836;4.364;2022-09-17T17:12:37;13.30;99.90
23691;DHT22;43867;50.836;4.364;2022-09-17T17:15:04;13.20;99.90
23691;DHT22;43867;50.836;4.364;2022-09-17T17:17:34;13.20;99.90
23691;DHT22;43867;50.836;4.364;2022-09-17T17:20:02;13.00;99.90
23691;DHT22;43867;50.836;4.364;2022-09-17T17:22:33;12.90;99.90
23691;DHT22;43867;50.836;4.364;2022-09-17T17:24:58;12.90;99.90
23691;DHT22;43867;50.836;4.364;2022-09-17T17:27:25;12.80;99.90
23691;DHT22;43867;50.836;4.364;2022-09-17T17:29:51;12.90;99.90
23691;DHT22;43867;50.836;4.364;2022-09-17T17:32:17;13.00;99.90
23691;DHT22;43867;50.836;4.364;2022-09-17T17:34:42;12.80;99.90
23691;DHT22;43867;50.836;4.364;2022-09-17T17:37:09;12.90;99.90
23691;DHT22;43867;50.836;4.364;2022-09-17T17:39:37;12.70;99.90
23691;DHT22;43867;50.836;4.364;2022-09-17T17:42:02;12.80;99.90
23691;DHT22;43867;50.836;4.364;2022-09-17T17:44:28;12.80;99.90
23691;DHT22;43867;50.836;4.364;2022-09-17T17:46:54;12.80;99.90
23691;DHT22;43867;50.836;4.364;2022-09-17T17:49:23;12.80;99.90
23691;DHT22;43867;50.836;4.364;2022-09-17T17:51:48;12.60;99.90
23691;DHT22;43867;50.836;4.364;2022-09-17T17:54:14;12.60;99.90
23691;DHT22;43867;50.836;4.364;2022-09-17T17:56:41;12.50;99.90
23691;DHT22;43867;50.836;4.364;2022-09-17T17:59:06;12.70;99.90
23691;DHT22;43867;50.836;4.364;2022-09-17T18:01:33;13.00;99.90
23691;DHT22;43867;50.836;4.364;2022-09-17T18:04:08;13.10;99.90
23691;DHT22;43867;50.836;4.364;2022-09-17T18:06:37;12.90;99.90
23691;DHT22;43867;50.836;4.364;2022-09-17T18:09:04;13.00;99.90
23691;DHT22;43867;50.836;4.364;2022-09-17T18:11:31;13.00;99.90
23691;DHT22;43867;50.836;4.364;2022-09-17T18:13:57;13.20;99.90
23691;DHT22;43867;50.836;4.364;2022-09-17T18:16:27;12.90;99.90
23691;DHT22;43867;50.836;4.364;2022-09-17T18:18:54;12.90;99.90
23691;DHT22;43867;50.836;4.364;2022-09-17T18:21:24;12.80;99.90
23691;DHT22;43867;50.836;4.364;2022-09-17T18:23:50;12.80;99.90
23691;DHT22;43867;50.836;4.364;2022-09-17T18:26:23;13.00;99.90
23691;DHT22;43867;50.836;4.364;2022-09-17T18:28:52;12.80;99.90
23691;DHT22;43867;50.836;4.364;2022-09-17T18:31:29;12.50;99.90
23691;DHT22;43867;50.836;4.364;2022-09-17T18:34:08;12.50;99.90
23691;DHT22;43867;50.836;4.364;2022-09-17T18:36:39;12.50;99.90
23691;DHT22;43867;50.836;4.364;2022-09-17T18:39:10;12.60;99.90
23691;DHT22;43867;50.836;4.364;2022-09-17T18:41:40;12.50;99.90
23691;DHT22;43867;50.836;4.364;2022-09-17T18:44:07;12.60;99.90
23691;DHT22;43867;50.836;4.364;2022-09-17T18:46:33;12.50;99.90
23691;DHT22;43867;50.836;4.364;2022-09-17T18:48:59;12.30;99.90
23691;DHT22;43867;50.836;4.364;2022-09-17T18:51:26;12.40;99.90
23691;DHT22;43867;50.836;4.364;2022-09-17T18:53:52;12.30;99.90
23691;DHT22;43867;50.836;4.364;2022-09-17T18:56:29;12.20;99.90
23691;DHT22;43867;50.836;4.364;2022-09-17T18:58:57;12.20;99.90
23691;DHT22;43867;50.836;4.364;2022-09-17T19:01:25;12.40;99.90
23691;DHT22;43867;50.836;4.364;2022-09-17T19:03:55;12.40;99.90
23691;DHT22;43867;50.836;4.364;2022-09-17T19:06:23;12.40;99.90
23691;DHT22;43867;50.836;4.364;2022-09-17T19:08:49;12.50;99.90
23691;DHT22;43867;50.836;4.364;2022-09-17T19:11:15;12.40;99.90
23691;DHT22;43867;50.836;4.364;2022-09-17T19:13:43;12.20;99.90
23691;DHT22;43867;50.836;4.364;2022-09-17T19:16:12;12.40;99.90
23691;DHT22;43867;50.836;4.364;2022-09-17T19:18:40;12.40;99.90
23691;DHT22;43867;50.836;4.364;2022-09-17T19:21:11;12.30;99.90
23691;DHT22;43867;50.836;4.364;2022-09-17T19:23:41;12.20;99.90
23691;DHT22;43867;50.836;4.364;2022-09-17T19:26:08;12.20;99.90
23691;DHT22;43867;50.836;4.364;2022-09-17T19:28:35;12.20;99.90
23691;DHT22;43867;50.836;4.364;2022-09-17T19:31:08;12.10;99.90
23691;DHT22;43867;50.836;4.364;2022-09-17T19:33:34;12.10;99.90
23691;DHT22;43867;50.836;4.364;2022-09-17T19:36:06;12.30;99.90
23691;DHT22;43867;50.836;4.364;2022-09-17T19:38:33;12.30;99.90
23691;DHT22;43867;50.836;4.364;2022-09-17T19:41:12;12.10;99.90
23691;DHT22;43867;50.836;4.364;2022-09-17T19:43:38;12.10;99.90
23691;DHT22;43867;50.836;4.364;2022-09-17T19:48:31;12.50;99.90
23691;DHT22;43867;50.836;4.364;2022-09-17T19:51:00;12.50;99.90
23691;DHT22;43867;50.836;4.364;2022-09-17T19:53:26;12.40;99.90
23691;DHT22;43867;50.836;4.364;2022-09-17T19:55:52;12.50;99.90